Hitachimaru — JD2063 — position and weather

sailwx.info

Track history (hours):
 
Tides and Currents Weather Stations Pressure Air Temp Water Temp Dewpoint Dewpoint Depression Visibility Wind Speed Wind Dir Waves Ship Positions

Hitachimaru

Last reported at 2015-May-25 23:23 UTC. Time now 2015-May-26 07:41 UTC.
Position N 34°37' E 134°57'.

Length 83 m; draft 4.5 m.

Type: Cargo ship. MMSI: 431301756.

Date/timePositionNaut miles runAvg speedWind from/ knotsBaromVisibWave heightAir tempDewpointWater temp
2015-May-25 23:23N 34°37' E 134°57'7 8.9
2015-May-25 22:33N 34°35' E 135°05'1111.3
2015-May-25 21:34N 34°24' E 135°02'1110.8
2015-May-25 20:34N 34°13' E 134°60'240 9.6
2015-May-24 19:31N 35°09' E 139°44'1010.6
2015-May-24 18:33N 35°20' E 139°43'6 6.2
2015-May-24 17:34N 35°23' E 139°49'3 2.7
2015-May-24 16:31N 35°22' E 139°51'0 0.0
2015-May-24 15:28N 35°22' E 139°51'0 0.0
2015-May-24 14:31N 35°22' E 139°51'0 0.0
2015-May-24 13:31N 35°22' E 139°51'0 0.0
2015-May-24 12:22N 35°22' E 139°51'0 0.0
2015-May-24 11:31N 35°22' E 139°51'0 0.0
2015-May-24 10:31N 35°22' E 139°51'0 0.0
2015-May-24 09:28N 35°22' E 139°51'0 0.0
2015-May-24 08:31N 35°22' E 139°51'1 0.6
2015-May-24 07:33N 35°22' E 139°50'9 9.1
2015-May-24 06:33N 35°31' E 139°52'10 9.7
2015-May-24 05:33N 35°39' E 139°58'2 1.7
2015-May-24 04:28N 35°41' E 139°57'0 0.0
2015-May-24 03:31N 35°41' E 139°57'0 0.0
2015-May-24 02:31N 35°41' E 139°57'0 0.0
2015-May-24 01:31N 35°41' E 139°57'0 0.0
2015-May-24 00:34N 35°41' E 139°57'1 0.9
2015-May-23 23:32N 35°40' E 139°57'0 0.0
2015-May-23 22:32N 35°40' E 139°57'0 0.0
2015-May-23 21:26N 35°40' E 139°57'0 0.0
2015-May-23 20:32N 35°40' E 139°57'0 0.0
2015-May-23 19:32N 35°40' E 139°57'0 0.0
2015-May-23 18:14N 35°40' E 139°57'0 0.0
2015-May-23 17:33N 35°40' E 139°57'3 2.8
2015-May-23 16:22N 35°37' E 139°58'0 0.0
2015-May-23 15:28N 35°37' E 139°58'0 0.0
2015-May-23 14:22N 35°37' E 139°58'0 0.1
2015-May-23 13:28N 35°37' E 139°58'0 0.0
2015-May-23 12:28N 35°37' E 139°58'0 0.0
2015-May-23 11:28N 35°37' E 139°58'0 0.0
2015-May-23 10:22N 35°37' E 139°58'0 0.0
2015-May-23 09:33N 35°37' E 139°58'9 9.2
2015-May-23 08:33N 35°29' E 139°52'1212.3
2015-May-23 07:33N 35°19' E 139°44'1211.5
2015-May-23 06:33N 35°07' E 139°46'1311.4
2015-May-23 05:26N 34°59' E 139°35'1112.4
2015-May-23 04:32N 34°52' E 139°24'22410.1
2015-May-22 06:29N 33°59' E 135°01'1112.3
2015-May-22 05:33N 34°11' E 134°59'1611.4
2015-May-22 04:10N 34°25' E 135°06'812.2
2015-May-22 03:33N 34°30' E 135°13'1110.9
2015-May-22 02:33N 34°36' E 135°24'3 0.5
2015-May-21 20:13N 34°34' E 135°27'0 0.0
2015-May-21 17:31N 34°34' E 135°27'0 0.0
2015-May-21 15:07N 34°34' E 135°27'0 0.0
2015-May-21 14:19N 34°34' E 135°27'0 0.0
2015-May-21 13:25N 34°34' E 135°27'0 0.0
2015-May-21 11:10N 34°34' E 135°27'0 0.0
2015-May-21 10:10N 34°34' E 135°27'0 0.0
2015-May-21 09:22N 34°34' E 135°27'0 0.0
2015-May-21 08:28N 34°34' E 135°27'0 0.0
2015-May-21 07:28N 34°34' E 135°27'0 0.0
2015-May-21 06:22N 34°34' E 135°27'0 0.0
2015-May-21 04:19N 34°34' E 135°27'4 5.5
2015-May-21 03:33N 34°35' E 135°22'4 3.8
2015-May-21 02:33N 34°32' E 135°19'0 0.0
2015-May-21 01:09N 34°32' E 135°19'0 0.0
2015-May-21 00:27N 34°32' E 135°19'0 0.1
2015-May-20 23:33N 34°32' E 135°19'0 0.0
2015-May-20 22:27N 34°32' E 135°19'1 0.6
2015-May-20 21:33N 34°32' E 135°19'1313.5
2015-May-20 20:34N 34°36' E 135°03'1514.0
2015-May-20 19:27N 34°39' E 134°45'12 0.3
2015-May-19 03:17N 34°38' E 134°59'6 8.8
2015-May-19 02:33N 34°34' E 135°05'1311.7
2015-May-19 01:29N 34°22' E 135°01'1111.4
2015-May-19 00:33N 34°11' E 134°60'236 9.3
2015-May-17 23:13N 34°51' E 139°42'1211.1
2015-May-17 22:06N 34°52' E 139°57'711.2
2015-May-17 21:29N 34°56' E 140°04'1211.2
2015-May-17 20:26N 35°02' E 140°16'3110.6
2015-May-17 17:32N 35°26' E 140°41'1311.2
2015-May-17 16:21N 35°36' E 140°51'1910.2
2015-May-17 14:29N 35°55' E 140°46'5 5.2
2015-May-17 13:33N 35°56' E 140°40'0 0.0
2015-May-17 12:26N 35°56' E 140°40'0 0.0
2015-May-17 11:32N 35°56' E 140°40'0 0.0
2015-May-17 09:29N 35°56' E 140°40'0 0.0
2015-May-17 08:05N 35°56' E 140°40'0 0.0
2015-May-17 04:32N 35°56' E 140°40'0 0.0
2015-May-17 03:08N 35°56' E 140°40'0 0.1
2015-May-17 02:26N 35°56' E 140°40'0 0.0
2015-May-17 01:32N 35°56' E 140°40'0 0.0
2015-May-17 00:32N 35°56' E 140°40'0 0.0
2015-May-16 23:14N 35°56' E 140°40'0 0.0
2015-May-16 22:32N 35°56' E 140°40'3 3.1
2015-May-16 21:33N 35°58' E 140°42'1 0.8
2015-May-16 20:16N 35°59' E 140°42'0 0.0
2015-May-16 19:10N 35°59' E 140°42'0 0.0
2015-May-16 18:04N 35°59' E 140°42'2 0.7
2015-May-16 15:32N 35°58' E 140°43'1312.1
2015-May-16 14:30N 35°48' E 140°53'1110.9
2015-May-16 13:31N 35°37' E 140°52'2713.0
2015-May-16 11:27N 35°15' E 140°32'1613.2
2015-May-16 10:14N 35°03' E 140°19'912.8
2015-May-16 09:33N 34°59' E 140°10'1212.4
2015-May-16 08:33N 34°52' E 139°57'1110.4
2015-May-16 07:29N 34°56' E 139°45'1211.3
2015-May-16 06:27N 35°08' E 139°45'1011.4
2015-May-16 05:33N 35°18' E 139°44'1010.5
2015-May-16 04:33N 35°28' E 139°49'3 3.0
2015-May-16 03:33N 35°30' E 139°51'0 0.0
2015-May-16 02:33N 35°30' E 139°51'0 0.0
2015-May-16 01:33N 35°30' E 139°51'0 0.0
2015-May-16 00:33N 35°30' E 139°51'0 0.0
2015-May-15 23:33N 35°30' E 139°51'  
Track history (hours):
 
Tides and Currents Weather Stations Pressure Air Temp Water Temp Dewpoint Dewpoint Depression Visibility Wind Speed Wind Dir Waves Ship Positions

Hitachimaru

Last reported at 2015-May-25 23:23 UTC. Time now 2015-May-26 07:41 UTC.
Position N 34°37' E 134°57'.

Length 83 m; draft 4.5 m.

Type: Cargo ship. MMSI: 431301756.

Date/timePositionNaut miles runAvg speedWind from/ knotsBaromVisibWave heightAir tempDewpointWater temp
2015-May-25 23:23N 34°37' E 134°57'7 8.9
2015-May-25 22:33N 34°35' E 135°05'1111.3
2015-May-25 21:34N 34°24' E 135°02'1110.8
2015-May-25 20:34N 34°13' E 134°60'240 9.6
2015-May-24 19:31N 35°09' E 139°44'1010.6
2015-May-24 18:33N 35°20' E 139°43'6 6.2
2015-May-24 17:34N 35°23' E 139°49'3 2.7
2015-May-24 16:31N 35°22' E 139°51'0 0.0
2015-May-24 15:28N 35°22' E 139°51'0 0.0
2015-May-24 14:31N 35°22' E 139°51'0 0.0
2015-May-24 13:31N 35°22' E 139°51'0 0.0
2015-May-24 12:22N 35°22' E 139°51'0 0.0
2015-May-24 11:31N 35°22' E 139°51'0 0.0
2015-May-24 10:31N 35°22' E 139°51'0 0.0
2015-May-24 09:28N 35°22' E 139°51'0 0.0
2015-May-24 08:31N 35°22' E 139°51'1 0.6
2015-May-24 07:33N 35°22' E 139°50'9 9.1
2015-May-24 06:33N 35°31' E 139°52'10 9.7
2015-May-24 05:33N 35°39' E 139°58'2 1.7
2015-May-24 04:28N 35°41' E 139°57'0 0.0
2015-May-24 03:31N 35°41' E 139°57'0 0.0
2015-May-24 02:31N 35°41' E 139°57'0 0.0
2015-May-24 01:31N 35°41' E 139°57'0 0.0
2015-May-24 00:34N 35°41' E 139°57'1 0.9
2015-May-23 23:32N 35°40' E 139°57'0 0.0
2015-May-23 22:32N 35°40' E 139°57'0 0.0
2015-May-23 21:26N 35°40' E 139°57'0 0.0
2015-May-23 20:32N 35°40' E 139°57'0 0.0
2015-May-23 19:32N 35°40' E 139°57'0 0.0
2015-May-23 18:14N 35°40' E 139°57'0 0.0
2015-May-23 17:33N 35°40' E 139°57'3 2.8
2015-May-23 16:22N 35°37' E 139°58'0 0.0
2015-May-23 15:28N 35°37' E 139°58'0 0.0
2015-May-23 14:22N 35°37' E 139°58'0 0.1
2015-May-23 13:28N 35°37' E 139°58'0 0.0
2015-May-23 12:28N 35°37' E 139°58'0 0.0
2015-May-23 11:28N 35°37' E 139°58'0 0.0
2015-May-23 10:22N 35°37' E 139°58'0 0.0
2015-May-23 09:33N 35°37' E 139°58'9 9.2
2015-May-23 08:33N 35°29' E 139°52'1212.3
2015-May-23 07:33N 35°19' E 139°44'1211.5
2015-May-23 06:33N 35°07' E 139°46'1311.4
2015-May-23 05:26N 34°59' E 139°35'1112.4
2015-May-23 04:32N 34°52' E 139°24'22410.1
2015-May-22 06:29N 33°59' E 135°01'1112.3
2015-May-22 05:33N 34°11' E 134°59'1611.4
2015-May-22 04:10N 34°25' E 135°06'812.2
2015-May-22 03:33N 34°30' E 135°13'1110.9
2015-May-22 02:33N 34°36' E 135°24'3 0.5
2015-May-21 20:13N 34°34' E 135°27'0 0.0
2015-May-21 17:31N 34°34' E 135°27'0 0.0
2015-May-21 15:07N 34°34' E 135°27'0 0.0
2015-May-21 14:19N 34°34' E 135°27'0 0.0
2015-May-21 13:25N 34°34' E 135°27'0 0.0
2015-May-21 11:10N 34°34' E 135°27'0 0.0
2015-May-21 10:10N 34°34' E 135°27'0 0.0
2015-May-21 09:22N 34°34' E 135°27'0 0.0
2015-May-21 08:28N 34°34' E 135°27'0 0.0
2015-May-21 07:28N 34°34' E 135°27'0 0.0
2015-May-21 06:22N 34°34' E 135°27'0 0.0
2015-May-21 04:19N 34°34' E 135°27'4 5.5
2015-May-21 03:33N 34°35' E 135°22'4 3.8
2015-May-21 02:33N 34°32' E 135°19'0 0.0
2015-May-21 01:09N 34°32' E 135°19'0 0.0
2015-May-21 00:27N 34°32' E 135°19'0 0.1
2015-May-20 23:33N 34°32' E 135°19'0 0.0
2015-May-20 22:27N 34°32' E 135°19'1 0.6
2015-May-20 21:33N 34°32' E 135°19'1313.5
2015-May-20 20:34N 34°36' E 135°03'1514.0
2015-May-20 19:27N 34°39' E 134°45'12 0.3
2015-May-19 03:17N 34°38' E 134°59'6 8.8
2015-May-19 02:33N 34°34' E 135°05'1311.7
2015-May-19 01:29N 34°22' E 135°01'1111.4
2015-May-19 00:33N 34°11' E 134°60'236 9.3
2015-May-17 23:13N 34°51' E 139°42'1211.1
2015-May-17 22:06N 34°52' E 139°57'711.2
2015-May-17 21:29N 34°56' E 140°04'1211.2
2015-May-17 20:26N 35°02' E 140°16'3110.6
2015-May-17 17:32N 35°26' E 140°41'1311.2
2015-May-17 16:21N 35°36' E 140°51'1910.2
2015-May-17 14:29N 35°55' E 140°46'5 5.2
2015-May-17 13:33N 35°56' E 140°40'0 0.0
2015-May-17 12:26N 35°56' E 140°40'0 0.0
2015-May-17 11:32N 35°56' E 140°40'0 0.0
2015-May-17 09:29N 35°56' E 140°40'0 0.0
2015-May-17 08:05N 35°56' E 140°40'0 0.0
2015-May-17 04:32N 35°56' E 140°40'0 0.0
2015-May-17 03:08N 35°56' E 140°40'0 0.1
2015-May-17 02:26N 35°56' E 140°40'0 0.0
2015-May-17 01:32N 35°56' E 140°40'0 0.0
2015-May-17 00:32N 35°56' E 140°40'0 0.0
2015-May-16 23:14N 35°56' E 140°40'0 0.0
2015-May-16 22:32N 35°56' E 140°40'3 3.1
2015-May-16 21:33N 35°58' E 140°42'1 0.8
2015-May-16 20:16N 35°59' E 140°42'0 0.0
2015-May-16 19:10N 35°59' E 140°42'0 0.0
2015-May-16 18:04N 35°59' E 140°42'2 0.7
2015-May-16 15:32N 35°58' E 140°43'1312.1
2015-May-16 14:30N 35°48' E 140°53'1110.9
2015-May-16 13:31N 35°37' E 140°52'2713.0
2015-May-16 11:27N 35°15' E 140°32'1613.2
2015-May-16 10:14N 35°03' E 140°19'912.8
2015-May-16 09:33N 34°59' E 140°10'1212.4
2015-May-16 08:33N 34°52' E 139°57'1110.4
2015-May-16 07:29N 34°56' E 139°45'1211.3
2015-May-16 06:27N 35°08' E 139°45'1011.4
2015-May-16 05:33N 35°18' E 139°44'1010.5
2015-May-16 04:33N 35°28' E 139°49'3 3.0
2015-May-16 03:33N 35°30' E 139°51'0 0.0
2015-May-16 02:33N 35°30' E 139°51'0 0.0
2015-May-16 01:33N 35°30' E 139°51'0 0.0
2015-May-16 00:33N 35°30' E 139°51'0 0.0
2015-May-15 23:33N 35°30' E 139°51'  

Dump ship's entire track history